createdAt,value
2023-04-28T00:02:01.413Z,1010.42
2023-04-28T00:05:10.052Z,1010.40
2023-04-28T00:08:20.100Z,1010.37
2023-04-28T00:11:28.558Z,1010.29
2023-04-28T00:14:37.814Z,1010.21
2023-04-28T00:17:47.752Z,1010.12
2023-04-28T00:20:56.128Z,1010.10
2023-04-28T00:24:04.498Z,1010.10
2023-04-28T00:27:12.378Z,1010.05
2023-04-28T00:30:21.822Z,1010.03
2023-04-28T00:33:29.772Z,1009.97
2023-04-28T00:36:37.697Z,1009.97
2023-04-28T00:39:47.292Z,1009.86
2023-04-28T00:42:55.479Z,1009.89
2023-04-28T00:46:03.537Z,1009.80
2023-04-28T00:49:12.825Z,1009.78
2023-04-28T00:52:20.762Z,1009.80
2023-04-28T00:55:28.836Z,1009.85
2023-04-28T00:58:38.322Z,1009.78
2023-04-28T01:01:46.424Z,1009.79
2023-04-28T01:04:54.500Z,1009.75
2023-04-28T01:08:04.028Z,1009.73
2023-04-28T01:11:12.146Z,1009.64
2023-04-28T01:14:20.271Z,1009.63
2023-04-28T01:17:28.395Z,1009.62
2023-04-28T01:20:37.720Z,1009.61
2023-04-28T01:23:45.784Z,1009.59
2023-04-28T01:26:54.093Z,1009.52
2023-04-28T01:30:03.688Z,1009.43
2023-04-28T01:33:11.786Z,1009.30
2023-04-28T01:36:19.766Z,1009.38
2023-04-28T01:39:29.284Z,1009.35
2023-04-28T01:42:37.400Z,1009.34
2023-04-28T01:45:45.473Z,1009.22
2023-04-28T01:48:54.868Z,1009.24
2023-04-28T01:52:02.946Z,1009.31
2023-04-28T01:55:11.044Z,1009.21
2023-04-28T01:58:19.065Z,1009.23
2023-04-28T02:01:28.554Z,1009.16
2023-04-28T02:04:36.765Z,1009.11
2023-04-28T02:07:44.707Z,1009.06
2023-04-28T02:10:54.280Z,1008.99
2023-04-28T02:14:02.497Z,1008.95
2023-04-28T02:17:10.519Z,1008.92
2023-04-28T02:20:20.008Z,1008.92
2023-04-28T02:23:28.117Z,1008.91
2023-04-28T02:26:36.276Z,1008.85
2023-04-28T02:29:45.607Z,1008.81
2023-04-28T02:32:53.791Z,1008.77
2023-04-28T02:36:01.720Z,1008.75
2023-04-28T02:39:11.255Z,1008.73
2023-04-28T02:42:19.280Z,1008.62
2023-04-28T02:45:27.320Z,1008.53
2023-04-28T02:48:35.376Z,1008.52
2023-04-28T02:51:44.716Z,1008.46
2023-04-28T02:54:52.901Z,1008.37
2023-04-28T02:58:00.954Z,1008.45
2023-04-28T03:01:10.330Z,1008.33
2023-04-28T03:04:18.748Z,1008.33
2023-04-28T03:07:27.178Z,1008.35
2023-04-28T03:10:36.780Z,1008.18
2023-04-28T03:13:44.936Z,1008.17
2023-04-28T03:16:52.967Z,1008.18
2023-04-28T03:20:02.385Z,1008.17
2023-04-28T03:23:10.524Z,1008.09
2023-04-28T03:26:18.736Z,1008.01
2023-04-28T03:29:26.817Z,1007.95
2023-04-28T03:32:36.366Z,1007.91
2023-04-28T03:35:44.329Z,1007.85
2023-04-28T03:38:52.423Z,1007.83
2023-04-28T03:42:01.853Z,1007.77
2023-04-28T03:45:10.004Z,1007.73
2023-04-28T03:48:18.143Z,1007.62
2023-04-28T03:51:27.566Z,1007.64
2023-04-28T03:54:36.135Z,1007.70
2023-04-28T03:57:44.216Z,1007.65
2023-04-28T04:00:53.674Z,1007.65
2023-04-28T04:04:02.002Z,1007.59
2023-04-28T04:07:10.142Z,1007.53
2023-04-28T04:10:19.568Z,1007.57
2023-04-28T04:13:27.686Z,1007.55
2023-04-28T04:16:35.878Z,1007.60
2023-04-28T04:19:44.005Z,1007.58
2023-04-28T04:22:53.555Z,1007.51
2023-04-28T04:26:01.609Z,1007.49
2023-04-28T04:29:09.957Z,1007.47
2023-04-28T04:32:19.986Z,1007.43
2023-04-28T04:35:28.389Z,1007.45
2023-04-28T04:38:36.493Z,1007.45
2023-04-28T04:41:46.401Z,1007.40
2023-04-28T04:44:54.709Z,1007.42
2023-04-28T04:48:02.594Z,1007.53
2023-04-28T04:51:12.828Z,1007.42
2023-04-28T04:54:21.093Z,1007.36
2023-04-28T04:57:29.591Z,1007.38
2023-04-28T05:00:37.455Z,1007.38
2023-04-28T05:03:46.984Z,1007.27
2023-04-28T05:06:55.333Z,1007.30
2023-04-28T05:10:03.335Z,1007.23
2023-04-28T05:13:13.610Z,1007.16
2023-04-28T05:16:21.676Z,1007.21
2023-04-28T05:19:29.765Z,1007.15
2023-04-28T05:22:39.280Z,1007.08
2023-04-28T05:25:47.295Z,1007.14
2023-04-28T05:28:55.296Z,1007.11
2023-04-28T05:32:04.653Z,1007.07
2023-04-28T05:35:12.660Z,1007.07
2023-04-28T05:38:22.137Z,1007.02
2023-04-28T05:41:32.699Z,1007.01
2023-04-28T05:44:42.991Z,1007.01
2023-04-28T05:47:50.862Z,1007.06
2023-04-28T05:50:58.677Z,1007.04
2023-04-28T05:54:08.029Z,1007.02
2023-04-28T05:57:15.839Z,1006.97
2023-04-28T06:00:23.774Z,1006.99
2023-04-28T06:03:33.328Z,1006.95
2023-04-28T06:06:41.206Z,1006.91
2023-04-28T06:09:49.000Z,1006.84
2023-04-28T06:12:58.128Z,1006.85
2023-04-28T06:16:06.003Z,1006.83
2023-04-28T06:19:13.900Z,1006.79
2023-04-28T06:22:23.153Z,1006.81
2023-04-28T06:25:30.965Z,1006.77
2023-04-28T06:28:38.786Z,1006.80
2023-04-28T06:31:46.768Z,1006.67
2023-04-28T06:34:58.308Z,1006.69
2023-04-28T06:38:06.409Z,1006.69
2023-04-28T06:41:14.214Z,1006.56
2023-04-28T06:44:23.538Z,1006.54
2023-04-28T06:47:31.330Z,1006.45
2023-04-28T06:50:39.886Z,1006.47
2023-04-28T06:53:49.751Z,1006.44
2023-04-28T06:56:57.552Z,1006.39
2023-04-28T07:00:05.441Z,1006.33
2023-04-28T07:03:14.817Z,1006.37
2023-04-28T07:06:22.701Z,1006.27
2023-04-28T07:09:31.500Z,1006.29
2023-04-28T07:12:40.799Z,1006.20
2023-04-28T07:15:48.652Z,1006.23
2023-04-28T07:18:56.406Z,1006.28
2023-04-28T07:22:04.259Z,1006.19
2023-04-28T07:25:13.532Z,1006.16
2023-04-28T07:28:21.305Z,1006.14
2023-04-28T07:31:29.306Z,1006.12
2023-04-28T07:34:38.391Z,1006.09
2023-04-28T07:37:46.155Z,1006.12
2023-04-28T07:40:54.050Z,1006.08
2023-04-28T07:44:03.296Z,1006.13
2023-04-28T07:47:11.186Z,1006.11
2023-04-28T07:50:19.179Z,1006.10
2023-04-28T07:53:28.457Z,1006.10
2023-04-28T07:56:36.246Z,1006.13
2023-04-28T07:59:43.956Z,1006.05
2023-04-28T08:02:51.960Z,1006.16
2023-04-28T08:06:01.478Z,1006.11
2023-04-28T08:09:09.250Z,1006.02
2023-04-28T08:12:17.421Z,1006.01
2023-04-28T08:15:26.660Z,1006.03
2023-04-28T08:18:34.474Z,1005.97
2023-04-28T08:21:42.209Z,1006.06
2023-04-28T08:24:51.455Z,1005.96
2023-04-28T08:27:59.276Z,1005.99
2023-04-28T08:31:07.029Z,1006.05
2023-04-28T08:34:16.894Z,1006.02
2023-04-28T08:37:24.770Z,1005.95
2023-04-28T08:40:32.683Z,1005.93
2023-04-28T08:43:40.551Z,1005.92
2023-04-28T08:46:49.912Z,1005.92
2023-04-28T08:49:57.695Z,1005.94
2023-04-28T08:53:05.437Z,1005.87
2023-04-28T08:56:14.713Z,1005.80
2023-04-28T08:59:22.393Z,1005.77
2023-04-28T09:02:30.175Z,1005.78
2023-04-28T09:05:38.801Z,1005.73
2023-04-28T09:08:46.758Z,1005.67
2023-04-28T09:11:54.653Z,1005.61
2023-04-28T09:15:04.355Z,1005.56
2023-04-28T09:18:13.143Z,1005.59
2023-04-28T09:21:21.364Z,1005.55
2023-04-28T09:24:31.069Z,1005.53
2023-04-28T09:27:39.699Z,1005.35
2023-04-28T09:30:47.887Z,1005.43
2023-04-28T09:33:56.064Z,1005.30
2023-04-28T09:37:05.691Z,1005.21
2023-04-28T09:40:14.619Z,1005.19
2023-04-28T09:43:22.877Z,1005.21
2023-04-28T09:46:32.821Z,1005.27
2023-04-28T09:49:41.004Z,1005.18
2023-04-28T09:52:49.145Z,1005.24
2023-04-28T09:55:58.455Z,1005.23
2023-04-28T09:59:06.706Z,1005.23
2023-04-28T10:02:41.031Z,1005.16
2023-04-28T10:05:21.715Z,1005.14
2023-04-28T10:08:30.400Z,1005.07
2023-04-28T10:11:38.073Z,1005.04
2023-04-28T10:14:46.463Z,1005.07
2023-04-28T10:17:56.791Z,1005.05
2023-04-28T10:21:04.459Z,1005.06
2023-04-28T10:24:12.948Z,1005.03
2023-04-28T10:27:22.452Z,1005.01
2023-04-28T10:30:30.921Z,1004.97
2023-04-28T10:33:39.815Z,1004.87
2023-04-28T10:36:49.462Z,1004.81
2023-04-28T10:39:57.663Z,1004.80
2023-04-28T10:43:05.838Z,1004.87
2023-04-28T10:46:15.105Z,1004.80
2023-04-28T10:49:23.253Z,1004.80
2023-04-28T10:52:31.615Z,1004.77
2023-04-28T10:55:40.857Z,1004.73
2023-04-28T10:58:49.133Z,1004.71
2023-04-28T11:01:57.001Z,1004.62
2023-04-28T11:05:05.788Z,1004.65
2023-04-28T11:08:15.806Z,1004.65
2023-04-28T11:11:23.610Z,1004.58
2023-04-28T11:14:31.302Z,1004.54
2023-04-28T11:17:40.593Z,1004.56
2023-04-28T11:20:49.250Z,1004.66
2023-04-28T11:23:58.608Z,1004.63
2023-04-28T11:27:08.732Z,1004.61
2023-04-28T11:30:17.082Z,1004.58
2023-04-28T11:33:25.513Z,1004.59
2023-04-28T11:36:34.703Z,1004.61
2023-04-28T11:39:42.698Z,1004.59
2023-04-28T11:42:51.082Z,1004.54
2023-04-28T11:45:59.822Z,1004.54
2023-04-28T11:49:08.891Z,1004.52
2023-04-28T11:52:17.033Z,1004.54
2023-04-28T11:55:25.575Z,1004.57
2023-04-28T11:58:35.282Z,1004.59
2023-04-28T12:01:43.057Z,1004.51
2023-04-28T12:04:51.568Z,1004.43
2023-04-28T12:08:01.257Z,1004.30
2023-04-28T12:11:08.995Z,1004.25
2023-04-28T12:14:17.516Z,1004.29
2023-04-28T12:17:27.220Z,1004.30
2023-04-28T12:20:35.574Z,1004.25
2023-04-28T12:23:44.288Z,1004.22
2023-04-28T12:26:53.896Z,1004.13
2023-04-28T12:30:02.159Z,1004.13
2023-04-28T12:33:10.920Z,1004.08
2023-04-28T12:36:19.155Z,1004.05
2023-04-28T12:39:28.946Z,1004.07
2023-04-28T12:42:37.111Z,1004.02
2023-04-28T12:45:45.707Z,1004.12
2023-04-28T12:48:55.210Z,1004.14
2023-04-28T12:52:03.023Z,1004.14
2023-04-28T12:55:11.768Z,1004.13
2023-04-28T12:58:21.408Z,1004.14
2023-04-28T13:01:29.266Z,1004.18
2023-04-28T13:04:38.000Z,1004.13
2023-04-28T13:07:47.219Z,1004.10
2023-04-28T13:10:56.001Z,1004.11
2023-04-28T13:14:05.434Z,1004.11
2023-04-28T13:17:13.256Z,1004.05
2023-04-28T13:20:22.914Z,1003.98
2023-04-28T13:23:31.774Z,1003.94
2023-04-28T13:26:39.863Z,1003.92
2023-04-28T13:29:49.957Z,1003.85
2023-04-28T13:32:58.251Z,1003.81
2023-04-28T13:36:06.368Z,1003.75
2023-04-28T13:39:15.919Z,1003.68
2023-04-28T13:42:23.802Z,1003.69
2023-04-28T13:45:32.461Z,1003.75
2023-04-28T13:48:42.066Z,1003.71
2023-04-28T13:51:51.185Z,1003.68
2023-04-28T13:54:59.325Z,1003.62
2023-04-28T13:58:09.011Z,1003.61
2023-04-28T14:01:19.441Z,1003.57
2023-04-28T14:04:28.324Z,1003.58
2023-04-28T14:07:36.571Z,1003.59
2023-04-28T14:10:45.833Z,1003.53
2023-04-28T14:13:54.369Z,1003.56
2023-04-28T14:17:03.111Z,1003.56
2023-04-28T14:20:13.261Z,1003.49
2023-04-28T14:23:22.030Z,1003.52
2023-04-28T14:26:25.514Z,1003.53
2023-04-28T14:29:35.157Z,1003.40
2023-04-28T14:32:43.571Z,1003.41
2023-04-28T14:35:52.172Z,1003.41
2023-04-28T14:39:01.708Z,1003.45
2023-04-28T14:42:10.598Z,1003.36
2023-04-28T14:45:18.314Z,1003.32
2023-04-28T14:48:26.807Z,1003.32
2023-04-28T14:51:36.349Z,1003.26
2023-04-28T14:54:47.142Z,1003.26
2023-04-28T14:57:55.724Z,1003.22
2023-04-28T15:01:06.628Z,1003.23
2023-04-28T15:04:15.816Z,1003.15
2023-04-28T15:07:25.474Z,1003.18
2023-04-28T15:10:35.812Z,1003.18
2023-04-28T15:13:44.080Z,1003.22
2023-04-28T15:16:52.220Z,1003.18
2023-04-28T15:20:02.506Z,1003.11
2023-04-28T15:23:10.248Z,1003.23
2023-04-28T15:26:18.882Z,1003.19
2023-04-28T15:29:29.277Z,1003.16
2023-04-28T15:32:37.462Z,1003.14
2023-04-28T15:35:46.081Z,1003.04
2023-04-28T15:38:55.327Z,1003.07
2023-04-28T15:42:04.875Z,1003.06
2023-04-28T15:45:13.710Z,1003.04
2023-04-28T15:48:22.371Z,1003.05
2023-04-28T15:51:32.428Z,1003.13
2023-04-28T15:54:41.150Z,1003.11
2023-04-28T15:57:49.334Z,1003.08
2023-04-28T16:00:59.421Z,1003.10
2023-04-28T16:04:08.362Z,1003.04
2023-04-28T16:07:16.972Z,1002.92
2023-04-28T16:10:26.960Z,1002.94
2023-04-28T16:13:35.344Z,1002.87
2023-04-28T16:16:43.497Z,1002.91
2023-04-28T16:19:51.633Z,1003.00
2023-04-28T16:23:01.243Z,1002.92
2023-04-28T16:26:10.742Z,1002.87
2023-04-28T16:29:18.895Z,1002.81
2023-04-28T16:32:28.467Z,1002.79
2023-04-28T16:35:37.800Z,1002.73
2023-04-28T16:38:46.647Z,1002.75
2023-04-28T16:41:45.665Z,1002.83
2023-04-28T16:44:54.199Z,1002.73
2023-04-28T16:48:02.445Z,1002.69
2023-04-28T16:51:12.290Z,1002.73
2023-04-28T16:54:20.756Z,1002.71
2023-04-28T16:57:28.786Z,1002.63
2023-04-28T17:00:37.053Z,1002.64
2023-04-28T17:03:47.492Z,1002.66
2023-04-28T17:06:55.632Z,1002.54
2023-04-28T17:10:04.199Z,1002.69
2023-04-28T17:13:13.940Z,1002.75
2023-04-28T17:16:22.420Z,1002.62
2023-04-28T17:19:30.611Z,1002.60
2023-04-28T17:22:40.101Z,1002.49
2023-04-28T17:25:48.647Z,1002.63
2023-04-28T17:28:57.314Z,1002.64
2023-04-28T17:32:06.402Z,1002.66
2023-04-28T17:35:14.958Z,1002.66
2023-04-28T17:38:23.975Z,1002.68
2023-04-28T17:41:33.632Z,1002.52
2023-04-28T17:44:41.879Z,1002.59
2023-04-28T17:47:50.476Z,1002.66
2023-04-28T17:50:58.255Z,1002.62
2023-04-28T17:54:07.987Z,1002.63
2023-04-28T17:57:16.596Z,1002.62
2023-04-28T18:00:25.323Z,1002.62
2023-04-28T18:03:35.473Z,1002.66
2023-04-28T18:06:44.252Z,1002.59
2023-04-28T18:09:52.411Z,1002.52
2023-04-28T18:13:02.635Z,1002.44
2023-04-28T18:16:10.881Z,1002.50
2023-04-28T18:19:19.341Z,1002.55
2023-04-28T18:22:29.057Z,1002.52
2023-04-28T18:25:37.759Z,1002.49
2023-04-28T18:28:46.385Z,1002.40
2023-04-28T18:31:54.231Z,1002.39
2023-04-28T18:35:04.334Z,1002.37
2023-04-28T18:38:12.063Z,1002.38
2023-04-28T18:41:20.496Z,1002.30
2023-04-28T18:44:30.421Z,1002.20
2023-04-28T18:47:39.115Z,1002.12
2023-04-28T18:50:47.135Z,1002.09
2023-04-28T18:53:57.802Z,1002.10
2023-04-28T18:57:05.606Z,1002.14
2023-04-28T19:00:14.235Z,1002.10
2023-04-28T19:03:24.635Z,1002.12
2023-04-28T19:06:33.197Z,1002.06
2023-04-28T19:09:41.247Z,1002.16
2023-04-28T19:12:50.919Z,1002.24
2023-04-28T19:16:00.128Z,1002.24
2023-04-28T19:19:09.686Z,1002.28
2023-04-28T19:22:19.213Z,1002.23
2023-04-28T19:25:29.330Z,1002.26
2023-04-28T19:28:37.461Z,1002.27
2023-04-28T19:31:45.707Z,1002.31
2023-04-28T19:34:55.753Z,1002.32
2023-04-28T19:38:03.521Z,1002.31
2023-04-28T19:41:12.843Z,1002.22
2023-04-28T19:44:22.553Z,1002.26
2023-04-28T19:47:31.594Z,1002.24
2023-04-28T19:50:40.864Z,1002.25
2023-04-28T19:53:50.522Z,1002.25
2023-04-28T19:56:59.040Z,1002.19
2023-04-28T20:00:07.061Z,1002.19
2023-04-28T20:03:15.661Z,1002.25
2023-04-28T20:06:25.220Z,1002.18
2023-04-28T20:09:34.151Z,1002.17
2023-04-28T20:12:42.400Z,1002.23
2023-04-28T20:15:52.859Z,1002.16
2023-04-28T20:19:00.867Z,1002.10
2023-04-28T20:22:09.536Z,1002.10
2023-04-28T20:25:19.368Z,1002.08
2023-04-28T20:28:28.056Z,1002.09
2023-04-28T20:31:37.036Z,1002.11
2023-04-28T20:34:47.023Z,1002.18
2023-04-28T20:37:55.162Z,1002.09
2023-04-28T20:41:03.928Z,1002.10
2023-04-28T20:44:14.093Z,1002.04
2023-04-28T20:47:22.924Z,1002.09
2023-04-28T20:50:30.974Z,1002.11
2023-04-28T20:53:39.480Z,1002.09
2023-04-28T20:56:49.426Z,1002.08
2023-04-28T20:59:59.006Z,1002.11
2023-04-28T21:03:07.926Z,1002.15
2023-04-28T21:06:07.881Z,1002.05
2023-04-28T21:09:16.661Z,1002.12
2023-04-28T21:12:25.541Z,1002.12
2023-04-28T21:15:35.197Z,1002.05
2023-04-28T21:18:44.403Z,1002.09
2023-04-28T21:21:53.066Z,1002.05
2023-04-28T21:25:03.722Z,1002.13
2023-04-28T21:28:11.850Z,1002.10
2023-04-28T21:31:20.465Z,1002.10
2023-04-28T21:34:28.938Z,1002.13
2023-04-28T21:37:38.116Z,1002.14
2023-04-28T21:40:46.135Z,1002.03
2023-04-28T21:43:54.643Z,1002.09
2023-04-28T21:47:04.716Z,1001.95
2023-04-28T21:50:12.784Z,1002.00
2023-04-28T21:53:21.230Z,1001.95
2023-04-28T21:56:30.856Z,1001.97
2023-04-28T21:59:40.283Z,1001.94
2023-04-28T22:02:48.600Z,1001.98
2023-04-28T22:05:58.563Z,1001.95
2023-04-28T22:09:06.620Z,1001.99
2023-04-28T22:12:14.806Z,1001.99
2023-04-28T22:15:23.977Z,1001.99
2023-04-28T22:18:34.306Z,1001.99
2023-04-28T22:21:42.586Z,1002.01
2023-04-28T22:24:51.649Z,1002.08
2023-04-28T22:28:01.289Z,1002.04
2023-04-28T22:31:09.817Z,1002.12
2023-04-28T22:34:18.695Z,1002.04
2023-04-28T22:37:28.674Z,1002.01
2023-04-28T22:40:36.859Z,1002.04
2023-04-28T22:43:45.643Z,1002.02
2023-04-28T22:46:55.749Z,1002.05
2023-04-28T22:50:04.846Z,1002.00
2023-04-28T22:53:13.383Z,1001.98
2023-04-28T22:56:22.789Z,1002.02
2023-04-28T22:59:31.471Z,1002.07
2023-04-28T23:02:39.909Z,1002.03
2023-04-28T23:05:48.688Z,1002.10
2023-04-28T23:08:57.772Z,1002.12
2023-04-28T23:12:06.984Z,1002.06
2023-04-28T23:15:15.125Z,1002.08
2023-04-28T23:18:24.906Z,1002.04
2023-04-28T23:21:33.351Z,1002.06
2023-04-28T23:24:41.475Z,1002.00
2023-04-28T23:27:51.152Z,1002.06
2023-04-28T23:30:59.293Z,1002.05
2023-04-28T23:34:07.899Z,1002.01
2023-04-28T23:37:17.397Z,1001.94
2023-04-28T23:40:26.014Z,1001.93
2023-04-28T23:43:34.107Z,1001.89
2023-04-28T23:46:42.663Z,1001.96
2023-04-28T23:49:53.254Z,1001.96
2023-04-28T23:53:01.434Z,1001.90
2023-04-28T23:56:09.816Z,1001.96
2023-04-28T23:59:20.231Z,1001.90
